createdAt,value
2019-04-23T00:02:24.529Z,60.50
2019-04-23T00:04:54.111Z,59.80
2019-04-23T00:07:39.551Z,60.10
2019-04-23T00:10:09.519Z,60.10
2019-04-23T00:12:38.088Z,60.30
2019-04-23T00:15:07.576Z,60.80
2019-04-23T00:20:03.818Z,60.70
2019-04-23T00:22:53.311Z,60.60
2019-04-23T00:25:48.382Z,60.70
2019-04-23T00:28:01.386Z,60.80
2019-04-23T00:30:41.444Z,61.20
2019-04-23T00:33:05.829Z,61.10
2019-04-23T00:35:32.631Z,62.00
2019-04-23T00:38:05.912Z,61.80
2019-04-23T00:40:31.779Z,62.10
2019-04-23T00:43:03.496Z,62.20
2019-04-23T00:45:39.838Z,62.70
2019-04-23T00:48:09.374Z,62.90
2019-04-23T00:50:52.820Z,63.50
2019-04-23T00:53:05.982Z,64.50
2019-04-23T00:55:35.610Z,64.20
2019-04-23T00:58:12.850Z,64.00
2019-04-23T01:00:45.966Z,64.50
2019-04-23T01:03:11.836Z,64.70
2019-04-23T01:05:45.502Z,65.40
2019-04-23T01:08:13.017Z,64.90
2019-04-23T01:10:54.045Z,64.90
2019-04-23T01:13:14.889Z,64.80
2019-04-23T01:15:49.531Z,64.80
2019-04-23T01:20:53.641Z,64.80
2019-04-23T01:23:40.478Z,65.40
2019-04-23T01:26:26.551Z,65.60
2019-04-23T01:29:03.480Z,65.80
2019-04-23T01:31:49.297Z,66.10
2019-04-23T01:33:55.413Z,66.50
2019-04-23T01:36:42.962Z,66.40
2019-04-23T01:39:03.671Z,67.60
2019-04-23T01:41:33.725Z,66.80
2019-04-23T01:43:57.990Z,67.30
2019-04-23T01:46:36.860Z,67.30
2019-04-23T01:49:23.627Z,67.80
2019-04-23T01:51:39.874Z,68.50
2019-04-23T01:54:02.452Z,68.50
2019-04-23T01:59:05.507Z,69.20
2019-04-23T02:01:31.496Z,70.00
2019-04-23T02:04:14.681Z,70.10
2019-04-23T02:09:10.564Z,70.80
2019-04-23T02:11:37.441Z,70.50
2019-04-23T02:14:08.322Z,70.70
2019-04-23T02:16:35.892Z,71.00
2019-04-23T02:19:11.525Z,71.20
2019-04-23T02:24:27.774Z,72.20
2019-04-23T02:27:07.356Z,72.70
2019-04-23T02:29:41.667Z,73.10
2019-04-23T02:32:01.489Z,73.10
2019-04-23T02:36:59.868Z,72.70
2019-04-23T02:39:45.988Z,72.60
2019-04-23T02:42:22.858Z,73.30
2019-04-23T02:44:34.993Z,73.00
2019-04-23T02:49:57.186Z,74.50
2019-04-23T02:52:09.484Z,74.80
2019-04-23T02:54:46.685Z,75.10
2019-04-23T02:57:05.562Z,75.80
2019-04-23T03:04:50.064Z,82.40
2019-04-23T03:07:36.747Z,81.30
2019-04-23T03:09:51.881Z,81.90
2019-04-23T03:12:44.131Z,82.60
2019-04-23T03:14:59.090Z,82.10
2019-04-23T03:17:15.051Z,82.40
2019-04-23T03:20:07.990Z,82.60
2019-04-23T03:27:49.118Z,84.40
2019-04-23T03:30:53.114Z,83.70
2019-04-23T03:35:09.443Z,83.90
2019-04-23T03:37:55.925Z,83.70
2019-04-23T03:40:27.822Z,84.20
2019-04-23T03:45:38.735Z,84.40
2019-04-23T03:48:10.343Z,85.10
2019-04-23T03:50:28.292Z,85.90
2019-04-23T03:53:25.660Z,86.60
2019-04-23T03:55:54.579Z,86.80
2019-04-23T03:58:34.786Z,87.10
2019-04-23T04:06:03.751Z,88.80
2019-04-23T04:08:38.831Z,90.00
2019-04-23T04:11:09.629Z,89.80
2019-04-23T04:21:01.105Z,90.70
2019-04-23T04:26:13.858Z,91.10
2019-04-23T04:28:27.795Z,91.10
2019-04-23T04:30:54.347Z,91.30
2019-04-23T04:33:38.604Z,92.20
2019-04-23T04:41:03.028Z,94.30
2019-04-23T04:46:23.621Z,94.60
2019-04-23T04:48:35.475Z,94.60
2019-04-23T04:51:28.985Z,94.90
2019-04-23T04:56:30.259Z,96.00
2019-04-23T04:59:05.848Z,96.20
2019-04-23T05:01:25.931Z,96.50
2019-04-23T05:03:50.815Z,97.00
2019-04-23T05:09:00.649Z,97.30
2019-04-23T05:16:27.675Z,98.80
2019-04-23T05:19:08.574Z,99.50
2019-04-23T05:21:36.840Z,99.50
2019-04-23T05:24:54.337Z,99.70
2019-04-23T05:26:25.121Z,99.90
2019-04-23T05:31:29.377Z,99.90
2019-04-23T05:33:57.931Z,99.90
2019-04-23T05:36:32.292Z,99.90
2019-04-23T05:39:01.608Z,99.90
2019-04-23T05:44:02.322Z,99.90
2019-04-23T05:49:03.039Z,99.90
2019-04-23T05:53:58.407Z,99.90
2019-04-23T05:56:27.437Z,99.90
2019-04-23T05:58:58.134Z,99.90
2019-04-23T06:04:21.991Z,99.90
2019-04-23T06:06:37.788Z,99.90
2019-04-23T06:11:39.556Z,99.90
2019-04-23T06:14:05.181Z,99.90
2019-04-23T06:16:36.122Z,99.90
2019-04-23T06:19:08.007Z,99.90
2019-04-23T06:27:22.048Z,99.90
2019-04-23T06:31:58.799Z,99.90
2019-04-23T06:37:06.902Z,99.90
2019-04-23T06:39:42.741Z,99.90
2019-04-23T06:42:17.688Z,99.90
2019-04-23T06:44:37.617Z,99.90
2019-04-23T06:47:06.732Z,99.90
2019-04-23T06:52:19.223Z,99.90
2019-04-23T06:54:56.514Z,99.90
2019-04-23T06:57:22.459Z,99.90
2019-04-23T06:59:50.655Z,99.90
2019-04-23T07:02:22.451Z,99.90
2019-04-23T07:04:58.687Z,99.90
2019-04-23T07:09:45.564Z,99.90
2019-04-23T07:12:21.917Z,99.90
2019-04-23T07:14:59.604Z,99.90
2019-04-23T07:17:13.367Z,99.90
2019-04-23T07:19:49.794Z,99.90
2019-04-23T07:24:54.479Z,99.90
2019-04-23T07:27:20.236Z,99.90
2019-04-23T07:29:56.796Z,99.90
2019-04-23T07:32:49.582Z,99.90
2019-04-23T07:35:13.240Z,99.90
2019-04-23T07:37:51.121Z,99.90
2019-04-23T07:43:11.638Z,99.90
2019-04-23T07:45:47.091Z,99.90
2019-04-23T07:51:10.566Z,99.90
2019-04-23T07:53:23.427Z,99.90
2019-04-23T07:55:56.909Z,99.90
2019-04-23T08:00:57.038Z,99.90
2019-04-23T08:03:25.446Z,99.90
2019-04-23T08:05:49.548Z,99.90
2019-04-23T08:08:26.405Z,99.90
2019-04-23T08:11:30.621Z,99.90
2019-04-23T08:13:47.386Z,99.90
2019-04-23T08:16:25.983Z,99.90
2019-04-23T08:18:49.801Z,99.90
2019-04-23T08:21:22.724Z,99.90
2019-04-23T08:24:06.516Z,99.90
2019-04-23T08:39:36.584Z,99.70
2019-04-23T08:42:23.283Z,99.60
2019-04-23T08:44:36.496Z,99.60
2019-04-23T08:49:40.352Z,99.50
2019-04-23T08:52:11.799Z,99.30
2019-04-23T08:54:49.858Z,99.40
2019-04-23T08:57:10.935Z,99.30
2019-04-23T09:02:25.463Z,99.10
2019-04-23T09:04:50.230Z,99.50
2019-04-23T09:07:57.153Z,98.50
2019-04-23T09:10:07.596Z,98.70
2019-04-23T09:12:36.609Z,98.70
2019-04-23T09:15:09.646Z,98.90
2019-04-23T09:17:41.104Z,98.30
2019-04-23T09:22:40.167Z,99.00
2019-04-23T09:25:26.438Z,99.20
2019-04-23T09:27:40.451Z,99.20
2019-04-23T09:30:14.816Z,98.80
2019-04-23T09:32:49.549Z,99.90
2019-04-23T09:35:43.095Z,99.50
2019-04-23T09:38:14.348Z,99.70
2019-04-23T09:43:27.055Z,99.10
2019-04-23T09:46:04.477Z,99.70
2019-04-23T09:48:37.386Z,99.10
2019-04-23T09:53:53.028Z,98.30
2019-04-23T09:56:25.037Z,98.10
2019-04-23T09:58:51.738Z,98.80
2019-04-23T10:03:47.537Z,98.70
2019-04-23T10:06:12.401Z,99.50
2019-04-23T10:08:42.006Z,99.30
2019-04-23T10:11:07.505Z,98.90
2019-04-23T10:13:36.569Z,99.20
2019-04-23T10:16:06.941Z,99.40
2019-04-23T10:18:37.364Z,98.40
2019-04-23T10:21:07.754Z,98.10
2019-04-23T10:23:37.006Z,97.40
2019-04-23T10:26:06.199Z,97.40
2019-04-23T10:28:44.160Z,98.50
2019-04-23T10:31:14.484Z,97.70
2019-04-23T10:33:44.022Z,96.70
2019-04-23T10:36:34.090Z,96.30
2019-04-23T10:39:10.624Z,96.70
2019-04-23T10:41:35.056Z,97.10
2019-04-23T10:44:21.467Z,96.20
2019-04-23T10:48:05.420Z,95.20
2019-04-23T10:53:19.524Z,95.90
2019-04-23T10:55:46.816Z,95.20
2019-04-23T10:58:08.459Z,95.50
2019-04-23T11:00:40.575Z,95.40
2019-04-23T11:03:26.650Z,95.60
2019-04-23T11:08:13.125Z,96.00
2019-04-23T11:10:46.324Z,97.00
2019-04-23T11:16:12.130Z,95.00
2019-04-23T11:18:38.258Z,94.80
2019-04-23T11:21:00.479Z,95.10
2019-04-23T11:23:29.079Z,95.10
2019-04-23T11:26:01.232Z,95.10
2019-04-23T11:30:57.265Z,95.90
2019-04-23T11:33:50.926Z,96.20
2019-04-23T11:41:38.396Z,95.70
2019-04-23T11:44:52.953Z,96.00
2019-04-23T11:46:39.822Z,95.80
2019-04-23T11:49:34.516Z,96.70
2019-04-23T11:57:29.950Z,95.40
2019-04-23T11:59:31.858Z,94.90
2019-04-23T12:02:05.332Z,96.70
2019-04-23T12:04:57.537Z,95.70
2019-04-23T12:07:26.290Z,95.60
2019-04-23T12:12:23.748Z,95.60
2019-04-23T12:15:13.449Z,95.30
2019-04-23T12:20:33.727Z,95.10
2019-04-23T12:23:25.659Z,94.20
2019-04-23T12:25:42.404Z,94.60
2019-04-23T12:28:01.326Z,94.60
2019-04-23T12:30:49.104Z,95.00
2019-04-23T12:33:22.259Z,94.80
2019-04-23T12:35:43.400Z,93.30
2019-04-23T12:38:22.057Z,93.20
2019-04-23T12:40:59.362Z,94.00
2019-04-23T12:43:25.636Z,93.50
2019-04-23T12:45:50.412Z,93.60
2019-04-23T12:48:44.037Z,93.80
2019-04-23T12:53:37.963Z,93.80
2019-04-23T12:56:04.997Z,92.40
2019-04-23T13:00:57.446Z,92.30
2019-04-23T13:03:33.031Z,91.80
2019-04-23T13:06:25.266Z,93.60
2019-04-23T13:09:01.478Z,92.40
2019-04-23T13:11:38.327Z,91.90
2019-04-23T13:13:58.726Z,91.90
2019-04-23T13:16:37.661Z,91.30
2019-04-23T13:19:33.057Z,91.80
2019-04-23T13:22:04.434Z,94.10
2019-04-23T13:24:44.083Z,91.40
2019-04-23T13:27:23.982Z,89.00
2019-04-23T13:29:50.150Z,90.00
2019-04-23T13:37:59.392Z,88.50
2019-04-23T13:40:24.473Z,89.40
2019-04-23T13:42:52.328Z,89.50
2019-04-23T13:45:47.073Z,87.40
2019-04-23T13:48:06.138Z,88.80
2019-04-23T13:50:34.576Z,88.40
2019-04-23T13:55:16.568Z,89.50
2019-04-23T14:00:36.895Z,88.10
2019-04-23T14:02:49.284Z,88.40
2019-04-23T14:05:29.663Z,88.30
2019-04-23T14:10:41.574Z,91.20
2019-04-23T14:13:20.669Z,90.80
2019-04-23T14:15:41.350Z,90.10
2019-04-23T14:18:29.345Z,89.50
2019-04-23T14:20:35.281Z,89.60
2019-04-23T14:23:13.044Z,90.30
2019-04-23T14:25:40.534Z,90.60
2019-04-23T14:33:17.607Z,90.80
2019-04-23T14:38:21.837Z,90.90
2019-04-23T14:43:20.140Z,89.90
2019-04-23T14:46:26.845Z,90.00
2019-04-23T14:48:29.966Z,90.60
2019-04-23T14:51:06.933Z,90.50
2019-04-23T14:53:33.703Z,88.70
2019-04-23T14:58:58.251Z,88.40
2019-04-23T15:03:40.190Z,88.10
2019-04-23T15:13:43.146Z,89.90
2019-04-23T15:16:19.941Z,88.40
2019-04-23T15:21:31.469Z,90.10
2019-04-23T15:27:02.424Z,88.90
2019-04-23T15:28:17.773Z,90.50
2019-04-23T15:31:33.599Z,89.00
2019-04-23T15:39:13.816Z,88.30
2019-04-23T15:41:43.854Z,87.90
2019-04-23T15:46:38.898Z,87.80
2019-04-23T15:51:39.855Z,87.20
2019-04-23T16:01:35.129Z,86.90
2019-04-23T16:03:41.836Z,88.40
2019-04-23T16:06:10.915Z,88.60
2019-04-23T16:09:06.349Z,88.20
2019-04-23T16:12:25.866Z,88.10
2019-04-23T16:24:21.968Z,86.50
2019-04-23T16:27:05.435Z,85.40
2019-04-23T16:32:31.434Z,86.00
2019-04-23T16:35:06.960Z,87.20
2019-04-23T16:37:27.111Z,85.50
2019-04-23T16:40:08.087Z,86.30
2019-04-23T16:42:34.346Z,86.10
2019-04-23T16:45:11.045Z,86.90
2019-04-23T16:47:28.643Z,85.50
2019-04-23T16:50:04.521Z,86.30
2019-04-23T16:52:26.731Z,85.70
2019-04-23T16:55:03.833Z,85.90
2019-04-23T17:00:17.140Z,85.50
2019-04-23T17:02:38.763Z,84.90
2019-04-23T17:05:14.319Z,86.30
2019-04-23T17:07:36.795Z,87.70
2019-04-23T17:10:11.576Z,85.70
2019-04-23T17:12:19.989Z,85.40
2019-04-23T17:17:33.980Z,85.70
2019-04-23T17:20:16.226Z,85.40
2019-04-23T17:22:38.444Z,86.60
2019-04-23T17:25:13.749Z,86.70
2019-04-23T17:27:52.489Z,87.00
2019-04-23T17:30:11.490Z,87.80
2019-04-23T17:33:02.994Z,87.60
2019-04-23T17:35:24.667Z,88.40
2019-04-23T17:38:14.942Z,88.30
2019-04-23T17:42:55.508Z,88.50
2019-04-23T17:47:57.870Z,89.00
2019-04-23T17:50:27.074Z,91.30
2019-04-23T17:55:35.502Z,92.10
2019-04-23T17:58:07.486Z,91.80
2019-04-23T18:01:06.946Z,91.30
2019-04-23T18:03:27.178Z,91.30
2019-04-23T18:06:04.290Z,91.20
2019-04-23T18:08:22.867Z,91.70
2019-04-23T18:10:59.444Z,91.70
2019-04-23T18:13:27.736Z,93.30
2019-04-23T18:16:04.579Z,93.70
2019-04-23T18:18:33.462Z,94.50
2019-04-23T18:21:03.386Z,95.00
2019-04-23T18:23:37.948Z,95.40
2019-04-23T18:26:05.498Z,95.90
2019-04-23T18:28:37.199Z,96.00
2019-04-23T18:31:15.629Z,96.30
2019-04-23T18:34:08.092Z,97.00
2019-04-23T18:36:18.309Z,97.20
2019-04-23T18:41:33.737Z,97.90
2019-04-23T18:44:05.806Z,97.80
2019-04-23T18:46:36.698Z,98.00
2019-04-23T18:48:53.353Z,99.00
2019-04-23T18:51:58.082Z,99.40
2019-04-23T18:54:26.863Z,99.50
2019-04-23T18:57:04.516Z,99.90
2019-04-23T18:59:30.377Z,99.90
2019-04-23T19:02:36.958Z,99.90
2019-04-23T19:05:03.572Z,99.90
2019-04-23T19:10:46.229Z,99.90
2019-04-23T19:13:17.639Z,99.90
2019-04-23T19:18:18.717Z,99.90
2019-04-23T19:25:46.750Z,99.90
2019-04-23T19:28:34.592Z,99.90
2019-04-23T19:33:49.272Z,99.90
2019-04-23T19:38:32.391Z,99.90
2019-04-23T19:43:34.187Z,99.90
2019-04-23T19:46:22.171Z,99.90
2019-04-23T19:48:42.428Z,99.90
2019-04-23T19:54:10.456Z,99.90
2019-04-23T19:56:37.781Z,99.90
2019-04-23T20:01:33.411Z,99.90
2019-04-23T20:03:55.991Z,99.90
2019-04-23T20:06:58.551Z,99.90
2019-04-23T20:11:42.573Z,99.90
2019-04-23T20:14:02.424Z,99.90
2019-04-23T20:19:07.550Z,99.90
2019-04-23T20:21:44.946Z,99.90
2019-04-23T20:24:21.346Z,99.90
2019-04-23T20:26:29.162Z,99.90
2019-04-23T20:29:45.544Z,99.90
2019-04-23T20:37:02.853Z,99.90
2019-04-23T20:39:38.589Z,99.90
2019-04-23T20:49:42.759Z,99.90
2019-04-23T20:52:07.124Z,99.90
2019-04-23T21:00:08.925Z,99.90
2019-04-23T21:02:54.067Z,99.90
2019-04-23T21:07:52.674Z,99.90
2019-04-23T21:12:50.108Z,99.90
2019-04-23T21:17:47.515Z,99.90
2019-04-23T21:20:24.515Z,99.90
2019-04-23T21:25:22.367Z,99.90
2019-04-23T21:27:48.711Z,99.90
2019-04-23T21:30:09.061Z,99.90
2019-04-23T21:32:49.476Z,99.90
2019-04-23T21:35:16.676Z,99.90
2019-04-23T21:40:55.995Z,99.90
2019-04-23T21:43:16.321Z,99.90
2019-04-23T21:48:27.992Z,99.90
2019-04-23T21:50:53.276Z,99.90
2019-04-23T21:53:15.231Z,99.90
2019-04-23T21:55:54.302Z,99.90
2019-04-23T21:58:29.674Z,99.90
2019-04-23T22:00:58.811Z,99.90
2019-04-23T22:03:34.131Z,99.90
2019-04-23T22:05:55.533Z,99.90
2019-04-23T22:08:20.476Z,99.90
2019-04-23T22:11:10.558Z,99.90
2019-04-23T22:13:29.160Z,99.90
2019-04-23T22:18:23.424Z,99.90
2019-04-23T22:20:59.588Z,99.90
2019-04-23T22:23:30.644Z,99.90
2019-04-23T22:26:07.595Z,99.90
2019-04-23T22:28:27.023Z,99.90
2019-04-23T22:33:27.226Z,99.90
2019-04-23T22:38:29.543Z,99.90
2019-04-23T22:40:56.410Z,99.90
2019-04-23T22:46:00.027Z,99.90
2019-04-23T22:48:42.987Z,99.90
2019-04-23T22:51:25.641Z,99.90
2019-04-23T22:53:41.788Z,99.90
2019-04-23T22:56:01.651Z,99.90
2019-04-23T22:59:02.204Z,99.90
2019-04-23T23:01:43.117Z,99.90
2019-04-23T23:04:11.463Z,99.90
2019-04-23T23:06:43.500Z,99.90
2019-04-23T23:11:34.497Z,99.90
2019-04-23T23:16:39.237Z,99.90
2019-04-23T23:19:19.357Z,99.90
2019-04-23T23:21:47.937Z,99.90
2019-04-23T23:26:54.252Z,99.90
2019-04-23T23:29:02.322Z,99.90
2019-04-23T23:31:39.838Z,99.90
2019-04-23T23:36:38.839Z,99.90
2019-04-23T23:41:40.458Z,99.90
2019-04-23T23:44:28.392Z,99.90
2019-04-23T23:49:11.720Z,99.90
2019-04-23T23:51:40.597Z,99.90
2019-04-23T23:54:08.208Z,99.90
2019-04-23T23:56:57.961Z,99.90
2019-04-23T23:59:12.802Z,99.90
